Time;durP1;ratioP1;P1;durP2;ratioP2;P2;SDS_P1;SDS_P2;PMS_P1;PMS_P2;Temp;Humidity;BMP_temperature;BMP_pressure;BME280_temperature;BME280_humidity;BME280_pressure;Samples;Min_cycle;Max_cycle;Signal;HPM_P1;HPM_P2
2022/03/08 00:01:52;;;;;;;12.15;5.97;;;0.70;99.90;;;;;;5050443;28;20060;-83
2022/03/08 00:04:18;;;;;;;10.18;5.88;;;0.70;99.90;;;;;;5069857;28;20048;-83
2022/03/08 00:06:44;;;;;;;10.73;6.07;;;0.60;99.90;;;;;;5045576;28;20447;-83
2022/03/08 00:09:09;;;;;;;13.70;6.00;;;0.60;99.90;;;;;;5041738;28;20765;-83
2022/03/08 00:11:35;;;;;;;10.18;6.07;;;0.60;99.90;;;;;;5043379;28;20543;-83
2022/03/08 00:14:00;;;;;;;11.93;5.85;;;0.60;99.90;;;;;;5045446;28;20040;-83
2022/03/08 00:16:26;;;;;;;12.40;6.25;;;0.60;99.90;;;;;;5043740;28;20098;-83
2022/03/08 00:18:52;;;;;;;11.23;6.10;;;0.50;99.90;;;;;;5042564;28;20504;-83
2022/03/08 00:21:18;;;;;;;11.38;5.53;;;0.50;99.90;;;;;;5076598;28;20040;-83
2022/03/08 00:23:44;;;;;;;11.25;6.88;;;0.50;99.90;;;;;;5045105;28;20123;-83
2022/03/08 00:26:10;;;;;;;9.68;5.25;;;0.60;99.90;;;;;;5046054;28;20500;-83
2022/03/08 00:28:36;;;;;;;12.25;6.45;;;0.50;99.90;;;;;;5063574;28;20051;-83
2022/03/08 00:31:01;;;;;;;10.13;5.50;;;0.50;99.90;;;;;;5047513;28;20041;-83
2022/03/08 00:33:28;;;;;;;10.95;5.55;;;0.60;99.90;;;;;;5042992;28;20092;-83
2022/03/08 00:35:53;;;;;;;11.75;6.25;;;0.40;99.90;;;;;;5044775;28;20136;-83
2022/03/08 00:38:20;;;;;;;12.65;5.85;;;0.40;99.90;;;;;;5046438;28;20152;-83
2022/03/08 00:40:46;;;;;;;11.93;6.10;;;0.40;99.90;;;;;;5040966;28;20049;-84
2022/03/08 00:43:11;;;;;;;12.50;6.38;;;0.40;99.90;;;;;;5062237;28;20488;-83
2022/03/08 00:45:38;;;;;;;13.00;6.40;;;-0.50;99.90;;;;;;5061120;28;20438;-83
2022/03/08 00:48:03;;;;;;;11.38;6.10;;;0.30;99.90;;;;;;5056672;28;20072;-83
2022/03/08 00:50:30;;;;;;;12.88;6.15;;;0.30;99.90;;;;;;5041370;28;20471;-84
2022/03/08 00:52:57;;;;;;;12.02;5.95;;;0.30;99.90;;;;;;5060562;28;20048;-83
2022/03/08 00:55:25;;;;;;;11.60;6.45;;;0.30;99.90;;;;;;5044714;28;20063;-83
2022/03/08 00:57:51;;;;;;;11.57;6.38;;;0.30;99.90;;;;;;5045306;28;20045;-83
2022/03/08 01:00:20;;;;;;;14.50;6.22;;;0.30;99.90;;;;;;5058565;28;20041;-83
2022/03/08 01:02:46;;;;;;;11.25;6.50;;;0.30;99.90;;;;;;5044112;28;20052;-83
2022/03/08 01:05:12;;;;;;;12.73;7.10;;;0.30;99.90;;;;;;5052580;28;20514;-84
2022/03/08 01:07:38;;;;;;;11.15;6.22;;;0.20;99.90;;;;;;5068306;28;20131;-83
2022/03/08 01:10:07;;;;;;;10.45;6.00;;;0.20;99.90;;;;;;5064155;28;20071;-83
2022/03/08 01:12:32;;;;;;;15.00;7.20;;;0.20;99.90;;;;;;5048609;28;20048;-83
2022/03/08 01:15:00;;;;;;;12.25;6.45;;;0.10;99.90;;;;;;5044954;28;20059;-83
2022/03/08 01:17:25;;;;;;;12.32;6.47;;;0.10;99.90;;;;;;5062668;28;20052;-83
2022/03/08 01:19:51;;;;;;;12.50;6.43;;;0.10;99.90;;;;;;5067366;28;20041;-83
2022/03/08 01:22:17;;;;;;;13.23;6.55;;;0.00;99.90;;;;;;5079950;28;20055;-83
2022/03/08 01:24:42;;;;;;;13.45;6.38;;;0.00;99.90;;;;;;5046678;28;20041;-83
2022/03/08 01:27:08;;;;;;;11.55;6.55;;;0.00;99.90;;;;;;5049417;28;20041;-83
2022/03/08 01:29:33;;;;;;;11.63;6.20;;;-0.10;99.90;;;;;;5044040;28;20041;-83
2022/03/08 01:31:59;;;;;;;12.88;6.88;;;-0.10;99.90;;;;;;5047745;28;20056;-83
2022/03/08 01:34:25;;;;;;;15.40;6.90;;;-0.10;99.90;;;;;;5047930;28;20036;-83
2022/03/08 01:36:50;;;;;;;12.00;6.53;;;-0.10;99.90;;;;;;5049888;28;20063;-83
2022/03/08 01:39:16;;;;;;;12.18;6.55;;;-0.10;99.90;;;;;;5043015;28;20044;-83
2022/03/08 01:41:42;;;;;;;11.85;6.63;;;-0.10;99.90;;;;;;5047747;28;20067;-83
2022/03/08 01:44:09;;;;;;;12.38;6.38;;;-0.10;99.90;;;;;;5048940;28;20037;-83
2022/03/08 01:46:36;;;;;;;13.57;6.85;;;-0.10;99.90;;;;;;5047917;28;20048;-83
2022/03/08 01:49:03;;;;;;;10.82;6.32;;;-0.10;99.90;;;;;;5059875;28;20504;-83
2022/03/08 01:51:28;;;;;;;13.43;6.88;;;-0.20;99.90;;;;;;5041192;28;20101;-82
2022/03/08 01:53:54;;;;;;;15.88;6.43;;;-0.10;99.90;;;;;;5049318;28;20044;-82
2022/03/08 01:56:20;;;;;;;13.23;7.38;;;-0.10;99.90;;;;;;5044976;28;20053;-83
2022/03/08 01:58:46;;;;;;;12.30;7.30;;;-0.10;99.90;;;;;;5049068;28;20048;-83
2022/03/08 02:01:11;;;;;;;12.45;6.55;;;-0.10;99.90;;;;;;5047925;28;20049;-83
2022/03/08 02:03:37;;;;;;;12.32;6.68;;;-0.10;99.90;;;;;;5045472;28;20044;-83
2022/03/08 02:06:03;;;;;;;14.80;6.78;;;-0.10;99.90;;;;;;5067788;28;20036;-83
2022/03/08 02:08:30;;;;;;;16.33;7.35;;;-0.10;99.90;;;;;;5051734;28;20522;-83
2022/03/08 02:10:55;;;;;;;12.02;7.50;;;-0.10;99.90;;;;;;5052813;28;20040;-82
2022/03/08 02:13:21;;;;;;;10.07;6.55;;;-0.20;99.90;;;;;;5043847;28;20091;-83
2022/03/08 02:15:49;;;;;;;11.77;7.00;;;-0.20;99.90;;;;;;5041968;28;20391;-83
2022/03/08 02:18:15;;;;;;;12.70;7.20;;;-0.20;99.90;;;;;;5038624;28;20041;-83
2022/03/08 02:20:41;;;;;;;13.35;6.75;;;-0.20;99.90;;;;;;5045773;28;20402;-83
2022/03/08 02:23:06;;;;;;;10.60;6.65;;;-0.20;99.90;;;;;;5061787;28;20523;-83
2022/03/08 02:25:32;;;;;;;13.00;7.22;;;0.20;99.90;;;;;;5043300;28;20043;-83
2022/03/08 02:27:57;;;;;;;12.40;7.22;;;-0.30;99.90;;;;;;5049133;28;20056;-83
2022/03/08 02:30:25;;;;;;;12.38;6.85;;;-0.30;99.90;;;;;;5044904;28;20052;-83
2022/03/08 02:32:51;;;;;;;11.57;7.22;;;-0.30;99.90;;;;;;5044594;28;20045;-83
2022/03/08 02:35:20;;;;;;;13.23;6.80;;;-0.30;99.90;;;;;;5043969;28;20094;-83
2022/03/08 02:37:48;;;;;;;14.02;7.75;;;-0.30;99.90;;;;;;5063754;28;20056;-83
2022/03/08 02:40:17;;;;;;;11.55;6.68;;;-0.40;99.90;;;;;;5062333;28;20106;-82
2022/03/08 02:42:43;;;;;;;14.18;8.02;;;-0.40;99.90;;;;;;5044483;28;20032;-83
2022/03/08 02:45:10;;;;;;;12.23;7.40;;;-0.40;99.90;;;;;;5064799;28;20060;-83
2022/03/08 02:47:35;;;;;;;12.25;7.68;;;-0.40;99.90;;;;;;5040133;28;20106;-83
2022/03/08 02:50:03;;;;;;;11.10;7.22;;;-0.40;99.90;;;;;;5039436;28;20591;-83
2022/03/08 02:52:28;;;;;;;13.07;7.43;;;-0.40;99.90;;;;;;5043764;28;20124;-83
2022/03/08 02:54:54;;;;;;;12.73;7.05;;;-0.50;99.90;;;;;;5044234;28;20033;-84
2022/03/08 02:57:19;;;;;;;12.27;7.32;;;-0.50;99.90;;;;;;5043753;28;20059;-84
2022/03/08 02:59:45;;;;;;;14.88;7.40;;;-0.50;99.90;;;;;;5042388;28;20430;-84
2022/03/08 03:02:10;;;;;;;13.23;7.88;;;-0.50;99.90;;;;;;5047312;28;20072;-84
2022/03/08 03:04:37;;;;;;;13.73;7.82;;;-0.60;99.90;;;;;;5044444;28;20522;-84
2022/03/08 03:07:03;;;;;;;16.15;7.90;;;-0.60;99.90;;;;;;5050835;28;20127;-84
2022/03/08 03:09:29;;;;;;;15.32;8.38;;;-0.60;99.90;;;;;;5043671;28;20124;-84
2022/03/08 03:11:54;;;;;;;14.75;8.23;;;-0.60;99.90;;;;;;5042214;28;20129;-84
2022/03/08 03:14:20;;;;;;;13.65;8.13;;;-0.60;99.90;;;;;;5046294;28;20075;-84
2022/03/08 03:16:45;;;;;;;14.70;8.18;;;-0.70;99.90;;;;;;5074402;28;20452;-84
2022/03/08 03:19:11;;;;;;;11.65;8.13;;;-0.70;99.90;;;;;;5036613;28;20047;-84
2022/03/08 03:21:37;;;;;;;15.85;8.23;;;-0.70;99.90;;;;;;5048138;28;20049;-84
2022/03/08 03:24:02;;;;;;;13.20;7.45;;;-0.70;99.90;;;;;;5061341;28;20045;-84
2022/03/08 03:26:28;;;;;;;13.18;7.97;;;-0.70;99.90;;;;;;5072697;28;20029;-83
2022/03/08 03:28:53;;;;;;;14.02;8.25;;;-0.70;99.90;;;;;;5041836;28;20333;-84
2022/03/08 03:31:19;;;;;;;14.52;8.00;;;-0.80;99.90;;;;;;5043087;28;20488;-84
2022/03/08 03:33:45;;;;;;;17.85;8.25;;;-0.80;99.90;;;;;;5048881;28;20037;-83
2022/03/08 03:36:10;;;;;;;11.95;7.70;;;-0.80;99.90;;;;;;5043840;28;20033;-84
2022/03/08 03:38:36;;;;;;;11.90;7.78;;;-0.80;99.90;;;;;;5045515;28;20500;-84
2022/03/08 03:41:02;;;;;;;17.42;9.13;;;-0.80;99.90;;;;;;5046604;28;21742;-84
2022/03/08 03:43:28;;;;;;;14.43;9.10;;;-0.90;99.90;;;;;;5043269;28;20047;-84
2022/03/08 03:45:53;;;;;;;12.73;8.73;;;-0.70;99.90;;;;;;5069106;28;20510;-84
2022/03/08 03:48:19;;;;;;;16.88;9.55;;;-0.90;99.90;;;;;;5045345;28;20051;-84
2022/03/08 03:50:44;;;;;;;13.43;8.80;;;-0.90;99.90;;;;;;5055840;28;20068;-84
2022/03/08 03:53:10;;;;;;;13.45;8.23;;;-0.90;99.90;;;;;;5068711;28;20043;-84
2022/03/08 03:55:36;;;;;;;16.17;8.70;;;-0.90;99.90;;;;;;5027898;28;20166;-85
2022/03/08 03:58:01;;;;;;;14.70;8.63;;;-0.90;99.90;;;;;;5046829;28;20393;-84
2022/03/08 04:00:27;;;;;;;13.82;8.57;;;-1.00;99.90;;;;;;5048350;28;20462;-84
2022/03/08 04:02:53;;;;;;;13.88;8.57;;;-1.00;99.90;;;;;;5051659;28;20551;-84
2022/03/08 04:05:19;;;;;;;13.80;8.55;;;-1.00;99.90;;;;;;5046413;28;20047;-84
2022/03/08 04:07:45;;;;;;;16.92;11.48;;;-0.80;99.90;;;;;;5043080;28;20473;-84
2022/03/08 04:10:13;;;;;;;14.10;8.70;;;-1.00;99.90;;;;;;5045773;28;20049;-84
2022/03/08 04:12:39;;;;;;;15.82;9.52;;;-1.10;99.90;;;;;;5040552;28;20389;-85
2022/03/08 04:15:05;;;;;;;16.33;9.60;;;-1.10;99.90;;;;;;5047696;28;20423;-84
2022/03/08 04:17:31;;;;;;;16.33;8.98;;;-1.10;99.90;;;;;;5044718;28;20311;-85
2022/03/08 04:19:57;;;;;;;12.90;8.57;;;-1.10;99.90;;;;;;5042695;28;20040;-85
2022/03/08 04:22:22;;;;;;;13.13;8.75;;;-1.10;99.90;;;;;;5036152;28;20094;-84
2022/03/08 04:24:49;;;;;;;13.98;8.48;;;-1.10;99.90;;;;;;5040792;28;20056;-84
2022/03/08 04:27:15;;;;;;;12.68;8.82;;;-1.10;99.90;;;;;;5038394;28;20094;-85
2022/03/08 04:29:40;;;;;;;16.25;9.38;;;-1.10;99.90;;;;;;5041206;28;20435;-85
2022/03/08 04:32:06;;;;;;;13.93;9.40;;;-1.20;99.90;;;;;;5042328;28;20045;-85
2022/03/08 04:34:32;;;;;;;15.07;9.48;;;-1.20;99.90;;;;;;5043812;28;20040;-85
2022/03/08 04:36:58;;;;;;;17.05;9.75;;;-1.00;99.90;;;;;;5065559;28;20045;-85
2022/03/08 04:39:23;;;;;;;16.42;9.43;;;-1.20;99.90;;;;;;5042802;28;20061;-85
2022/03/08 04:41:49;;;;;;;16.98;10.05;;;-1.20;99.90;;;;;;5042706;28;20043;-85
2022/03/08 04:44:15;;;;;;;14.00;9.43;;;-1.20;99.90;;;;;;5046204;28;20052;-85
2022/03/08 04:46:41;;;;;;;15.52;8.82;;;-1.20;99.90;;;;;;5041721;28;20559;-85
2022/03/08 04:49:06;;;;;;;13.93;9.60;;;-1.20;99.90;;;;;;5040831;28;20855;-85
2022/03/08 04:51:35;;;;;;;15.88;9.45;;;-1.20;99.90;;;;;;5055555;28;20056;-85
2022/03/08 04:54:01;;;;;;;17.63;9.75;;;-1.20;99.90;;;;;;5044245;28;20039;-85
2022/03/08 04:56:26;;;;;;;17.55;9.68;;;-1.30;99.90;;;;;;5028348;28;20116;-85
2022/03/08 04:58:53;;;;;;;15.48;8.95;;;-1.30;99.90;;;;;;5064246;28;20510;-85
2022/03/08 05:01:19;;;;;;;17.92;9.63;;;-1.10;99.90;;;;;;5065137;28;20051;-85
2022/03/08 05:03:45;;;;;;;16.27;9.68;;;-1.30;99.90;;;;;;5044247;28;20068;-85
2022/03/08 05:06:10;;;;;;;19.05;10.52;;;-1.30;99.90;;;;;;5045574;28;20504;-85
2022/03/08 05:08:36;;;;;;;23.00;10.23;;;-1.30;99.90;;;;;;5072328;28;20119;-85
2022/03/08 05:11:02;;;;;;;16.08;10.30;;;-1.30;99.90;;;;;;5043352;28;20044;-86
2022/03/08 05:13:31;;;;;;;17.42;10.00;;;-1.30;99.90;;;;;;5043765;28;20041;-85
2022/03/08 05:15:57;;;;;;;16.08;9.50;;;-1.30;99.90;;;;;;5045132;28;20098;-84
2022/03/08 05:18:22;;;;;;;19.42;10.68;;;-1.30;99.90;;;;;;5046731;28;20385;-85
2022/03/08 05:20:48;;;;;;;19.58;9.95;;;-1.30;99.90;;;;;;5049095;28;20090;-85
2022/03/08 05:23:14;;;;;;;18.35;10.18;;;-1.00;99.90;;;;;;5053200;28;20056;-85
2022/03/08 05:25:41;;;;;;;18.73;10.90;;;-1.30;99.90;;;;;;5047841;28;20399;-85
2022/03/08 05:28:07;;;;;;;22.80;11.18;;;-1.30;99.90;;;;;;5042969;28;20084;-85
2022/03/08 05:30:33;;;;;;;19.80;10.85;;;-1.30;99.90;;;;;;5064470;28;20091;-85
2022/03/08 05:32:58;;;;;;;17.33;10.35;;;-1.30;99.90;;;;;;5042501;28;20036;-85
2022/03/08 05:35:24;;;;;;;18.90;10.63;;;-1.30;99.90;;;;;;5040900;28;20094;-84
2022/03/08 05:37:50;;;;;;;18.75;10.52;;;-1.30;99.90;;;;;;5043699;28;20045;-85
2022/03/08 05:40:15;;;;;;;20.88;10.98;;;-1.40;99.90;;;;;;5044450;28;20087;-85
2022/03/08 05:42:41;;;;;;;19.27;11.15;;;-1.30;99.90;;;;;;5043196;28;20496;-85
2022/03/08 05:45:08;;;;;;;19.58;10.93;;;-1.30;99.90;;;;;;5038104;28;20060;-85
2022/03/08 05:47:35;;;;;;;22.23;11.23;;;-1.40;99.90;;;;;;5042935;28;20420;-85
2022/03/08 05:50:01;;;;;;;21.80;11.23;;;-1.40;99.90;;;;;;5035143;28;20044;-85
2022/03/08 05:52:27;;;;;;;26.33;11.70;;;-1.20;99.90;;;;;;5059550;28;20048;-85
2022/03/08 05:54:53;;;;;;;21.33;10.50;;;-1.40;99.90;;;;;;5047330;28;20044;-86
2022/03/08 05:57:18;;;;;;;20.10;10.10;;;-1.40;99.90;;;;;;5070392;28;20053;-88
2022/03/08 05:59:44;;;;;;;18.85;11.48;;;-1.40;99.90;;;;;;5062508;28;20033;-86
2022/03/08 06:02:11;;;;;;;20.67;11.52;;;-0.70;99.90;;;;;;5048353;28;20045;-86
2022/03/08 06:04:37;;;;;;;19.73;10.48;;;-1.40;99.90;;;;;;5040837;28;20040;-85
2022/03/08 06:07:03;;;;;;;23.52;11.63;;;-1.40;99.90;;;;;;5041847;28;20106;-84
2022/03/08 06:09:28;;;;;;;20.83;11.00;;;-1.40;99.90;;;;;;5044006;28;20037;-84
2022/03/08 06:11:54;;;;;;;20.40;10.55;;;-1.40;99.90;;;;;;5042414;28;20049;-82
2022/03/08 06:14:20;;;;;;;21.77;10.93;;;-1.40;99.90;;;;;;5070332;28;20089;-92
2022/03/08 06:16:45;;;;;;;22.20;11.55;;;-1.40;99.90;;;;;;5043690;28;20095;-91
2022/03/08 06:19:11;;;;;;;23.35;12.07;;;-1.40;99.90;;;;;;5044341;28;20052;-88
2022/03/08 06:21:37;;;;;;;23.05;12.25;;;-1.40;99.90;;;;;;5046674;28;20049;-89
2022/03/08 06:24:03;;;;;;;22.83;12.18;;;-1.40;99.90;;;;;;5048050;28;20545;-89
2022/03/08 06:26:28;;;;;;;20.25;11.00;;;-1.40;99.90;;;;;;5042656;28;20060;-88
2022/03/08 06:28:54;;;;;;;23.02;11.93;;;-0.40;99.90;;;;;;5045829;28;20037;-88
2022/03/08 06:31:20;;;;;;;24.70;11.30;;;-1.40;99.90;;;;;;5067737;28;20086;-87
2022/03/08 06:33:45;;;;;;;20.95;11.95;;;-1.40;99.90;;;;;;5046462;28;20045;-84
2022/03/08 06:36:11;;;;;;;22.52;12.23;;;-1.40;99.90;;;;;;5042256;28;20039;-86
2022/03/08 06:38:37;;;;;;;23.77;12.32;;;-1.40;99.90;;;;;;5046432;28;20048;-87
2022/03/08 06:41:02;;;;;;;23.77;12.40;;;-1.40;99.90;;;;;;5046453;28;20044;-85
2022/03/08 06:43:28;;;;;;;19.55;11.48;;;-1.30;99.90;;;;;;5046825;28;20056;-87
2022/03/08 06:45:54;;;;;;;27.67;13.65;;;-1.30;99.90;;;;;;5064802;28;20515;-86
2022/03/08 06:48:20;;;;;;;20.73;11.60;;;-1.30;99.90;;;;;;5049534;28;20048;-88
2022/03/08 06:50:45;;;;;;;20.17;11.52;;;-1.30;99.90;;;;;;5038989;28;20064;-86
2022/03/08 06:53:11;;;;;;;22.23;11.15;;;-1.30;99.90;;;;;;5042174;28;20140;-89
2022/03/08 06:55:37;;;;;;;21.58;11.45;;;-1.30;99.90;;;;;;5039609;28;20040;-83
2022/03/08 06:58:03;;;;;;;21.00;11.70;;;-1.30;99.90;;;;;;5072205;28;20057;-85
2022/03/08 07:00:29;;;;;;;23.40;11.77;;;-1.20;99.90;;;;;;5073264;28;20087;-78
2022/03/08 07:02:55;;;;;;;23.08;11.18;;;-1.20;99.90;;;;;;5043707;28;20072;-79
2022/03/08 07:05:21;;;;;;;25.60;12.75;;;-1.20;99.90;;;;;;5047499;28;20055;-80
2022/03/08 07:07:46;;;;;;;21.92;11.32;;;-1.10;99.90;;;;;;5040509;28;20120;-80
2022/03/08 07:10:13;;;;;;;22.50;11.57;;;-1.10;99.90;;;;;;5037361;28;20064;-78
2022/03/08 07:12:39;;;;;;;22.35;12.55;;;-1.10;99.90;;;;;;5040197;28;20377;-79
2022/03/08 07:15:06;;;;;;;24.05;12.63;;;-1.10;99.90;;;;;;5036762;28;20037;-78
2022/03/08 07:17:31;;;;;;;21.33;11.38;;;-1.10;99.90;;;;;;5041937;28;20185;-81
2022/03/08 07:19:57;;;;;;;21.33;11.82;;;-1.00;99.90;;;;;;5042865;28;20098;-80
2022/03/08 07:22:22;;;;;;;24.70;11.93;;;-0.90;99.90;;;;;;5039521;28;20374;-82
2022/03/08 07:24:48;;;;;;;23.02;12.15;;;-0.90;99.90;;;;;;5043001;28;20143;-81
2022/03/08 07:27:13;;;;;;;24.50;12.85;;;-0.80;99.90;;;;;;5036908;28;20049;-81
2022/03/08 07:29:39;;;;;;;21.83;12.52;;;-0.70;99.90;;;;;;5045622;28;20183;-81
2022/03/08 07:32:05;;;;;;;21.55;11.80;;;-0.60;99.90;;;;;;5036205;28;20131;-82
2022/03/08 07:34:31;;;;;;;24.02;12.80;;;-0.50;99.90;;;;;;5037076;28;20041;-82
2022/03/08 07:36:56;;;;;;;24.98;11.90;;;-0.50;99.90;;;;;;5037379;28;20481;-82
2022/03/08 07:39:22;;;;;;;22.58;12.32;;;-0.40;99.90;;;;;;5038823;28;20041;-81
2022/03/08 07:41:47;;;;;;;24.52;12.60;;;-0.30;99.90;;;;;;5034783;28;20047;-82
2022/03/08 07:44:13;;;;;;;21.67;11.85;;;-0.30;99.90;;;;;;5043679;28;20060;-82
2022/03/08 07:46:39;;;;;;;23.75;11.52;;;-0.20;99.90;;;;;;5049446;28;20041;-82
2022/03/08 07:49:05;;;;;;;23.40;12.10;;;-0.10;99.90;;;;;;5060251;28;20067;-81
2022/03/08 07:51:31;;;;;;;22.83;11.75;;;0.00;99.90;;;;;;5041140;28;20041;-82
2022/03/08 07:53:56;;;;;;;23.35;12.68;;;0.10;99.90;;;;;;5035812;28;20098;-81
2022/03/08 07:56:22;;;;;;;24.50;13.57;;;0.20;99.90;;;;;;5065179;28;20040;-81
2022/03/08 07:58:47;;;;;;;21.58;12.77;;;0.30;99.90;;;;;;5046680;28;20045;-82
2022/03/08 08:01:13;;;;;;;24.50;11.85;;;0.40;99.90;;;;;;5050479;28;20041;-81
2022/03/08 08:03:39;;;;;;;22.60;11.13;;;0.50;99.90;;;;;;5052245;28;21643;-81
2022/03/08 08:06:04;;;;;;;25.67;11.75;;;0.60;99.90;;;;;;5055215;28;20120;-81
2022/03/08 08:08:30;;;;;;;25.95;11.80;;;0.70;99.90;;;;;;5039977;28;20399;-81
2022/03/08 08:10:55;;;;;;;22.63;11.93;;;0.70;99.90;;;;;;5043927;28;20053;-81
2022/03/08 08:13:21;;;;;;;21.08;11.27;;;0.80;99.90;;;;;;5051705;28;20048;-81
2022/03/08 08:15:47;;;;;;;22.10;12.38;;;0.90;99.90;;;;;;5064259;28;20368;-81
2022/03/08 08:18:13;;;;;;;21.85;11.27;;;1.00;99.90;;;;;;5047464;28;20052;-81
2022/03/08 08:20:39;;;;;;;20.75;10.50;;;1.10;99.90;;;;;;5042820;28;20069;-81
2022/03/08 08:23:04;;;;;;;20.15;10.82;;;1.30;99.90;;;;;;5048956;28;20373;-81
2022/03/08 08:25:30;;;;;;;23.85;10.68;;;1.30;99.90;;;;;;5036848;28;20033;-81
2022/03/08 08:27:56;;;;;;;22.55;11.13;;;1.40;99.90;;;;;;5050351;28;20049;-81
2022/03/08 08:30:21;;;;;;;18.08;10.02;;;1.50;99.90;;;;;;5046070;28;20495;-82
2022/03/08 08:32:50;;;;;;;16.58;10.48;;;1.70;99.90;;;;;;5047361;28;20120;-81
2022/03/08 08:35:16;;;;;;;20.55;10.75;;;1.70;99.90;;;;;;5040119;28;20380;-81
2022/03/08 08:37:42;;;;;;;22.17;11.00;;;1.80;99.90;;;;;;5054265;28;20060;-82
2022/03/08 08:40:08;;;;;;;20.02;11.13;;;2.00;99.90;;;;;;5035800;28;20075;-81
2022/03/08 08:42:34;;;;;;;19.50;10.50;;;2.10;99.90;;;;;;5048965;28;20036;-81
2022/03/08 08:44:59;;;;;;;19.73;10.20;;;2.20;99.90;;;;;;5068340;28;20041;-81
2022/03/08 08:47:25;;;;;;;18.38;10.13;;;2.30;99.90;;;;;;5069837;28;20083;-81
2022/03/08 08:49:51;;;;;;;18.77;10.45;;;2.40;99.90;;;;;;5059976;28;20055;-81
2022/03/08 08:52:16;;;;;;;18.25;10.95;;;2.50;99.90;;;;;;5038535;28;20045;-81
2022/03/08 08:54:42;;;;;;;20.45;10.00;;;2.60;99.90;;;;;;5060572;28;20136;-81
2022/03/08 08:57:08;;;;;;;18.30;9.70;;;2.80;99.90;;;;;;5067128;28;20049;-81
2022/03/08 08:59:33;;;;;;;18.35;9.95;;;3.00;99.90;;;;;;5068900;28;20044;-81
2022/03/08 09:01:59;;;;;;;17.25;9.27;;;3.00;99.90;;;;;;5065111;28;20036;-82
2022/03/08 09:04:24;;;;;;;16.85;10.43;;;3.10;99.90;;;;;;5056972;28;20183;-81
2022/03/08 09:06:50;;;;;;;17.05;9.80;;;3.20;99.90;;;;;;5057125;28;20037;-81
2022/03/08 09:09:15;;;;;;;15.90;9.13;;;3.30;99.90;;;;;;5057504;28;20044;-81
2022/03/08 09:11:41;;;;;;;15.38;9.02;;;3.40;99.90;;;;;;5068757;28;21142;-81
2022/03/08 09:14:08;;;;;;;16.80;9.43;;;3.50;99.90;;;;;;5068452;28;20045;-81
2022/03/08 09:16:34;;;;;;;18.63;9.95;;;3.60;99.90;;;;;;5063494;28;20451;-81
2022/03/08 09:19:00;;;;;;;14.77;9.05;;;3.70;99.90;;;;;;5064666;28;20132;-81
2022/03/08 09:21:25;;;;;;;19.23;9.52;;;3.80;99.90;;;;;;5058255;28;20119;-81
2022/03/08 09:23:51;;;;;;;19.92;9.05;;;3.90;99.90;;;;;;5069213;28;20391;-81
2022/03/08 09:26:16;;;;;;;15.98;9.18;;;4.00;99.90;;;;;;5038234;28;20187;-82
2022/03/08 09:28:42;;;;;;;13.60;8.00;;;4.20;99.90;;;;;;5060112;28;20500;-82
2022/03/08 09:31:08;;;;;;;14.30;8.05;;;4.40;99.90;;;;;;5075623;28;20129;-82
2022/03/08 09:33:34;;;;;;;13.27;7.88;;;4.50;99.90;;;;;;5069727;28;20159;-81
2022/03/08 09:35:59;;;;;;;16.17;8.15;;;4.70;99.90;;;;;;5063152;28;20055;-82
2022/03/08 09:38:25;;;;;;;12.25;7.65;;;4.90;99.90;;;;;;5047945;28;20045;-82
2022/03/08 09:40:51;;;;;;;14.88;7.63;;;5.10;99.90;;;;;;5049193;28;20706;-82
2022/03/08 09:43:17;;;;;;;11.80;7.63;;;5.20;99.90;;;;;;5061408;28;20044;-82
2022/03/08 09:45:43;;;;;;;14.10;8.77;;;5.40;99.90;;;;;;5071128;28;20039;-82
2022/03/08 09:48:09;;;;;;;13.32;8.02;;;5.60;99.90;;;;;;5068149;28;20127;-82
2022/03/08 09:50:36;;;;;;;13.68;7.57;;;5.80;99.90;;;;;;5046273;28;20048;-82
2022/03/08 09:53:03;;;;;;;13.30;7.68;;;5.90;99.90;;;;;;5068946;28;20069;-82
2022/03/08 09:55:28;;;;;;;14.48;8.70;;;6.00;99.90;;;;;;5072817;28;20075;-82
2022/03/08 09:57:55;;;;;;;11.43;7.22;;;6.10;99.90;;;;;;5054425;28;20073;-82
2022/03/08 10:00:23;;;;;;;13.55;8.23;;;6.20;99.90;;;;;;5072449;28;20044;-82
2022/03/08 10:02:53;;;;;;;12.35;7.40;;;6.40;99.90;;;;;;5066814;28;20510;-82
2022/03/08 10:05:39;;;;;;;13.57;7.57;;;6.60;99.90;;;;;;5053456;28;20559;-82
2022/03/08 10:08:13;;;;;;;12.88;7.57;;;6.70;99.90;;;;;;5072985;28;20041;-82
2022/03/08 10:10:47;;;;;;;14.05;7.50;;;6.90;99.90;;;;;;5038464;28;20391;-83
2022/03/08 10:13:14;;;;;;;11.63;7.57;;;7.10;99.90;;;;;;5056759;28;20044;-82
2022/03/08 10:15:40;;;;;;;12.32;7.38;;;7.20;99.90;;;;;;5060476;28;20048;-82
2022/03/08 10:18:06;;;;;;;12.43;6.93;;;7.30;99.90;;;;;;5060045;28;20067;-83
2022/03/08 10:20:33;;;;;;;10.10;6.60;;;7.40;99.90;;;;;;5052979;28;20036;-82
2022/03/08 10:23:01;;;;;;;10.65;6.35;;;7.60;99.90;;;;;;5037635;28;20098;-81
2022/03/08 10:25:29;;;;;;;12.05;6.63;;;7.70;99.90;;;;;;5057381;28;20492;-80
2022/03/08 10:27:55;;;;;;;10.68;6.72;;;7.80;99.90;;;;;;5060174;28;20083;-80
2022/03/08 10:30:26;;;;;;;9.23;5.70;;;8.00;99.90;;;;;;5063146;28;20044;-83
2022/03/08 10:32:59;;;;;;;14.27;5.25;;;8.00;99.90;;;;;;5071934;28;20047;-82
2022/03/08 10:35:29;;;;;;;10.27;5.47;;;8.10;98.10;;;;;;5066956;28;20055;-83
2022/03/08 10:38:04;;;;;;;10.23;5.65;;;8.30;97.80;;;;;;5039180;28;20435;-82
2022/03/08 10:40:30;;;;;;;9.40;5.25;;;8.40;98.30;;;;;;5059746;28;20049;-82
2022/03/08 10:43:14;;;;;;;9.80;5.43;;;8.50;96.00;;;;;;5064025;28;20361;-83
2022/03/08 10:45:49;;;;;;;9.85;5.63;;;8.60;95.90;;;;;;5069622;28;20083;-83
2022/03/08 10:48:18;;;;;;;9.05;5.05;;;8.60;97.80;;;;;;5058350;28;20518;-82
2022/03/08 10:50:45;;;;;;;9.88;5.72;;;8.70;93.60;;;;;;5046155;28;20533;-83
2022/03/08 10:53:13;;;;;;;9.55;5.55;;;8.80;96.40;;;;;;5049182;28;20086;-82
2022/03/08 10:55:45;;;;;;;12.88;6.25;;;9.00;96.90;;;;;;5062582;28;20048;-83
2022/03/08 10:58:13;;;;;;;9.48;5.82;;;9.00;95.00;;;;;;5044272;28;20052;-82
2022/03/08 11:00:42;;;;;;;10.20;5.88;;;9.10;94.30;;;;;;5071584;28;20044;-83
2022/03/08 11:03:12;;;;;;;9.40;5.10;;;9.20;93.80;;;;;;5054607;28;20083;-83
2022/03/08 11:05:50;;;;;;;9.95;5.50;;;9.20;93.00;;;;;;5047492;28;20480;-83
2022/03/08 11:08:17;;;;;;;8.05;5.28;;;9.30;93.90;;;;;;5042608;28;20049;-81
2022/03/08 11:10:43;;;;;;;10.63;5.30;;;9.40;92.80;;;;;;5058525;28;20033;-81
2022/03/08 11:13:10;;;;;;;8.52;5.50;;;9.40;91.50;;;;;;5058949;28;20037;-81
2022/03/08 11:15:39;;;;;;;11.93;6.03;;;9.40;93.30;;;;;;5057707;28;20059;-81
2022/03/08 11:18:10;;;;;;;8.98;5.78;;;9.50;92.00;;;;;;5056349;28;20048;-80
2022/03/08 11:20:37;;;;;;;9.98;5.78;;;9.60;91.70;;;;;;5064316;28;20082;-80
2022/03/08 11:23:04;;;;;;;10.25;5.45;;;9.70;92.60;;;;;;5048606;28;20504;-81
2022/03/08 11:25:35;;;;;;;11.88;6.53;;;9.80;91.60;;;;;;5040267;28;20051;-80
2022/03/08 11:28:02;;;;;;;8.88;5.78;;;9.90;91.40;;;;;;5053392;28;20393;-81
2022/03/08 11:30:35;;;;;;;7.78;5.30;;;10.00;90.20;;;;;;5039396;28;20477;-82
2022/03/08 11:33:19;;;;;;;8.70;5.60;;;10.00;88.00;;;;;;5059342;28;20055;-82
2022/03/08 11:36:00;;;;;;;9.32;5.30;;;10.00;89.90;;;;;;5059805;28;20044;-83
2022/03/08 11:38:25;;;;;;;9.38;5.30;;;10.10;90.50;;;;;;5069690;28;20048;-82
2022/03/08 11:40:59;;;;;;;8.48;5.05;;;10.10;90.00;;;;;;5071189;28;20051;-82
2022/03/08 11:43:41;;;;;;;8.05;4.82;;;10.20;90.80;;;;;;5069206;28;20075;-82
2022/03/08 11:46:18;;;;;;;10.10;5.25;;;10.30;90.00;;;;;;5039000;28;20040;-82
2022/03/08 11:48:58;;;;;;;7.22;4.78;;;10.40;90.20;;;;;;5050218;28;20430;-83
2022/03/08 11:51:28;;;;;;;7.90;5.15;;;10.50;89.90;;;;;;5041775;28;20040;-83
2022/03/08 11:54:12;;;;;;;7.80;4.47;;;10.60;90.20;;;;;;5051877;28;20407;-83
2022/03/08 11:56:48;;;;;;;8.25;4.68;;;10.70;89.90;;;;;;5070315;28;20048;-83
2022/03/08 11:59:14;;;;;;;10.75;4.57;;;10.90;86.50;;;;;;5062128;28;20047;-82
2022/03/08 12:01:40;;;;;;;6.35;3.90;;;10.90;87.30;;;;;;5070320;28;20044;-83
2022/03/08 12:04:14;;;;;;;7.32;4.18;;;11.00;81.80;;;;;;5041602;28;20402;-83
2022/03/08 12:06:47;;;;;;;7.53;4.47;;;11.10;80.60;;;;;;5040995;28;20127;-83
2022/03/08 12:09:15;;;;;;;7.07;4.55;;;11.10;79.60;;;;;;5050092;28;20040;-83
2022/03/08 12:11:45;;;;;;;7.72;4.40;;;11.10;79.30;;;;;;5035415;28;20055;-83
2022/03/08 12:14:20;;;;;;;8.30;3.80;;;11.10;81.90;;;;;;5070027;28;20049;-83
2022/03/08 12:16:48;;;;;;;6.75;4.10;;;11.20;82.30;;;;;;5038694;28;20114;-85
2022/03/08 12:19:29;;;;;;;7.78;3.70;;;11.30;78.90;;;;;;5058687;28;20561;-83
2022/03/08 12:21:56;;;;;;;6.35;4.10;;;11.30;77.50;;;;;;5040493;28;20064;-81
2022/03/08 12:24:22;;;;;;;7.85;4.13;;;11.30;76.00;;;;;;5050021;28;20052;-81
2022/03/08 12:26:48;;;;;;;8.70;3.63;;;11.30;76.90;;;;;;5069514;28;20563;-81
2022/03/08 12:29:24;;;;;;;8.25;3.75;;;11.30;76.90;;;;;;5056038;28;20045;-84
2022/03/08 12:31:56;;;;;;;7.57;4.00;;;11.30;75.60;;;;;;5065574;28;20037;-84
2022/03/08 12:34:43;;;;;;;6.72;3.95;;;11.30;75.40;;;;;;5039838;28;20053;-83
2022/03/08 12:37:36;;;;;;;6.75;3.80;;;11.40;75.20;;;;;;5071893;28;20037;-85